Terminal Aerodrome Forecast
Issued by NWS

Home | Current Version | Previous Version | Graphics & Text | Print | Product List | Glossary Off
Versions: 1 2 3 4 5 6 7 8 9 10 11 12 13 14 15 16 17 18 19 20

000
FTUS43 KGRB 020100 AAA
TAFAUW
TAF AMD
KAUW 020117Z 0201/0224 13008KT P6SM SCT020 BKN035
      TEMPO 0201/0203 -SHRA BKN020
     FM020300 14005KT 6SM BR SCT008 OVC019
      TEMPO 0204/0207 3SM -SHRA BR BKN008
     FM020700 14003KT 3SM -DZ BR OVC004
      TEMPO 0210/0214 1/2SM FG BKN002
     FM021400 VRB03KT 3SM BR SCT004 BKN012
     FM021900 12003KT 5SM BR SCT012 BKN025=

USA.gov is the U.S. government's official web portal to all federal, state and local government web resources and services.